Tropical Cyclones
[Index]
Main Index Home Page Stock Weather Photos Extreme Storms Discussion Storm News and Storm Chasing Reports Tropical Cyclones / Hurricanes / Typhoons Weather Data and Links Wild Fires / Bushfires Weather Observation Techniques Weather Picture Catalogue Tornado Pictures and Reports Stock Video Footage and DVDs for sale
Season 2004-2005 Tropical Cyclone PHOEBE Track Map
Season 2004-2005 Summaries: [BoM-AU] [JTWC-AU] [JTWC-SIO] [JTWC-SPAC] [JTWC-SH]
<<- Previous TC | JTWC 2004-2005 Season | Next TC ->>

click for intensity scale information  Lat/long Grid: Show Hide

 Date Labels: Show Hide

Joint Typhoon Warning Centre Cyclone Data

Name: PHOEBE

31 Aug 2004 06:00 UTC to 04 Sep 2004 12:00 UTC

    date/time    lat    long     hPa   cat  kts
2004-08-31 06    3.8    88.0    1002         25          
2004-08-31 12    4.3    88.6    1002         25          
2004-08-31 18    5.1    89.1    1002         25          
2004-09-01 00    5.5    89.8    1002         25          
2004-09-01 06    5.9    90.5    1000         30          
2004-09-01 12    6.7    90.7    1000         30          
2004-09-01 18    7.4    90.6     997         35          
2004-09-02 00    8.0    90.9     997         35          
2004-09-02 06    8.6    91.3     994    1    40          
2004-09-02 12    9.2    91.6     991    1    45          
2004-09-02 18    9.2    92.3     984    2    55          
2004-09-02 18    9.2    92.3     984    2    55          
2004-09-03 00    9.2    92.8     984    2    55          
2004-09-03 00    9.2    92.8     984    2    55          
2004-09-03 06    9.6    93.0     991    1    45          
2004-09-03 12    9.8    92.8     994    1    40          
2004-09-03 18    9.6    92.6     994    1    40          
2004-09-04 00    9.6    92.9     997         35          
2004-09-04 06    9.8    93.1     997         35          
2004-09-04 12   10.0    92.9    1000         30          
Winds are 1-min average.

Tropical cyclone tracks developed by Michael Bath using data from the Joint Typhoon Warning Centre Best Tracks and Google Maps.


[Australian Severe Weather index] [Copyright Notice] [Email Contacts] [Search This Site] [Privacy Policy]
Document: tropical_cyclone_phoebe.htm Updated: 28 June 2017